Time;durP1;ratioP1;P1;durP2;ratioP2;P2;SDS_P1;SDS_P2;PMS_P1;PMS_P2;Temp;Humidity;BMP_temperature;BMP_pressure;BME280_temperature;BME280_humidity;BME280_pressure;Samples;Min_cycle;Max_cycle;Signal;HPM_P1;HPM_P2
2023/08/24 00:01:06;;;;;;;6.55;5.72;;;;;;;19.80;68.84;99105.63;5002434;28;20038;-83
2023/08/24 00:03:32;;;;;;;9.68;5.82;;;;;;;19.68;68.88;99103.41;4999274;28;20087;-83
2023/08/24 00:05:58;;;;;;;8.93;5.63;;;;;;;19.64;68.82;99093.47;5004525;28;20486;-82
2023/08/24 00:08:23;;;;;;;6.32;5.78;;;;;;;19.57;69.13;99101.22;5006242;28;20113;-83
2023/08/24 00:10:49;;;;;;;8.18;5.95;;;;;;;19.59;69.04;99096.31;5023064;28;20113;-82
2023/08/24 00:13:15;;;;;;;8.43;6.75;;;;;;;19.76;68.86;99110.03;5016887;28;21043;-83
2023/08/24 00:15:41;;;;;;;6.60;6.00;;;;;;;19.67;69.13;99103.72;5000488;28;20171;-82
2023/08/24 00:18:07;;;;;;;6.80;6.10;;;;;;;19.62;69.17;99111.94;5003798;28;20030;-82
2023/08/24 00:20:33;;;;;;;8.60;6.13;;;;;;;19.68;69.09;99111.53;5005182;28;20026;-82
2023/08/24 00:22:59;;;;;;;7.30;5.70;;;;;;;19.49;69.64;99100.00;5004724;28;20026;-82
2023/08/24 00:25:25;;;;;;;6.60;5.90;;;;;;;19.54;69.38;99107.22;5005210;28;20041;-82
2023/08/24 00:27:51;;;;;;;7.78;6.07;;;;;;;19.54;69.10;99088.28;5022906;28;20136;-82
2023/08/24 00:30:17;;;;;;;6.82;5.80;;;;;;;19.55;69.43;99092.59;5008502;28;20034;-83
2023/08/24 00:32:42;;;;;;;8.25;5.32;;;;;;;19.48;69.60;99081.38;5002093;28;20588;-83
2023/08/24 00:35:10;;;;;;;8.60;5.30;;;;;;;19.42;69.71;99089.56;5019219;28;20060;-82
2023/08/24 00:37:35;;;;;;;6.38;5.40;;;;;;;19.56;69.33;99086.06;5020797;28;20041;-82
2023/08/24 00:40:08;;;;;;;6.55;5.80;;;;;;;19.44;69.32;99071.13;5007124;28;20444;-83
2023/08/24 00:42:37;;;;;;;9.00;5.80;;;;;;;19.47;69.31;99088.69;5004941;28;20477;-82
2023/08/24 00:45:04;;;;;;;9.07;5.38;;;;;;;19.43;69.48;99079.56;5000644;28;20042;-82
2023/08/24 00:47:29;;;;;;;10.90;6.05;;;;;;;19.39;69.07;99076.66;5006516;28;20037;-82
2023/08/24 00:49:55;;;;;;;7.25;5.32;;;;;;;19.47;69.55;99083.25;5004118;28;20410;-83
2023/08/24 00:52:21;;;;;;;6.35;5.75;;;;;;;19.35;69.15;99077.56;5004976;28;20046;-82
2023/08/24 00:54:47;;;;;;;6.90;6.20;;;;;;;19.25;69.28;99056.03;5000195;28;20085;-82
2023/08/24 00:57:13;;;;;;;10.57;6.22;;;;;;;19.33;69.09;99075.09;4986226;28;20037;-82
2023/08/24 00:59:39;;;;;;;7.82;6.07;;;;;;;19.23;69.44;99079.91;4991999;28;20509;-83
2023/08/24 01:02:05;;;;;;;5.95;5.55;;;;;;;19.07;69.66;99079.38;5003722;28;20025;-83
2023/08/24 01:04:30;;;;;;;7.55;6.32;;;;;;;19.12;69.82;99089.31;5001319;28;20474;-83
2023/08/24 01:06:55;;;;;;;6.30;5.72;;;;;;;19.05;69.71;99068.03;5002685;28;20049;-83
2023/08/24 01:09:22;;;;;;;9.25;6.18;;;;;;;19.07;69.79;99089.38;5001175;28;20030;-83
2023/08/24 01:12:07;;;;;;;9.07;5.82;;;;;;;19.12;69.63;99092.81;5012279;28;20406;-83
2023/08/24 01:14:50;;;;;;;6.83;5.70;;;;;;;19.05;69.84;99097.81;5003462;28;20025;-83
2023/08/24 01:17:19;;;;;;;8.52;6.13;;;;;;;18.96;69.93;99077.16;5004333;28;20033;-83
2023/08/24 01:19:45;;;;;;;6.78;6.10;;;;;;;18.99;70.24;99076.53;5020630;28;20436;-82
2023/08/24 01:22:38;;;;;;;7.43;5.97;;;;;;;19.11;70.03;99083.06;5013811;28;20117;-83
2023/08/24 01:25:15;;;;;;;10.70;6.68;;;;;;;19.12;69.49;99073.06;5004736;28;20441;-82
2023/08/24 01:27:42;;;;;;;10.20;5.82;;;;;;;19.10;69.77;99067.16;5001451;28;20137;-82
2023/08/24 01:30:09;;;;;;;7.13;6.43;;;;;;;19.00;69.88;99070.06;5001386;28;20034;-83
2023/08/24 01:32:36;;;;;;;8.57;6.13;;;;;;;19.11;70.27;99077.66;5021282;28;20039;-83
2023/08/24 01:35:07;;;;;;;7.40;6.70;;;;;;;19.01;70.09;99071.63;5012633;28;20156;-82
2023/08/24 01:37:34;;;;;;;6.93;6.22;;;;;;;19.00;70.35;99073.53;5000783;28;20088;-82
2023/08/24 01:40:12;;;;;;;7.68;6.47;;;;;;;19.00;69.98;99067.34;4999580;28;20030;-83
2023/08/24 01:42:58;;;;;;;16.77;5.78;;;;;;;19.02;70.02;99067.84;5020259;28;20064;-83
2023/08/24 01:45:29;;;;;;;8.73;6.97;;;;;;;18.87;70.56;99079.72;5001137;28;20502;-82
2023/08/24 01:47:55;;;;;;;7.43;6.75;;;;;;;18.90;69.95;99079.13;5004367;28;20394;-83
2023/08/24 01:50:21;;;;;;;7.07;5.78;;;;;;;18.82;70.10;99069.00;5004718;28;20497;-83
2023/08/24 01:52:47;;;;;;;7.32;6.70;;;;;;;18.89;70.16;99071.31;5002584;28;20062;-83
2023/08/24 01:55:13;;;;;;;9.32;6.50;;;;;;;18.87;70.16;99065.41;5001672;28;20053;-83
2023/08/24 01:57:38;;;;;;;8.02;6.47;;;;;;;18.80;70.33;99056.88;4988374;28;20080;-83
2023/08/24 02:00:06;;;;;;;11.23;6.85;;;;;;;18.87;70.00;99060.78;5007022;28;20486;-82
2023/08/24 02:02:33;;;;;;;7.50;6.50;;;;;;;18.69;70.55;99043.53;5006030;28;20601;-82
2023/08/24 02:04:59;;;;;;;7.18;6.57;;;;;;;18.74;70.35;99050.72;5007168;28;20030;-82
2023/08/24 02:07:24;;;;;;;6.80;6.13;;;;;;;18.69;70.59;99048.94;5006762;28;20037;-83
2023/08/24 02:09:49;;;;;;;7.93;5.90;;;;;;;18.75;70.04;99040.72;4985143;28;20508;-82
2023/08/24 02:12:15;;;;;;;10.25;6.03;;;;;;;18.67;70.33;99040.28;5000042;28;20121;-83
2023/08/24 02:14:40;;;;;;;11.68;7.18;;;;;;;18.59;70.46;99043.69;5025655;28;20034;-83
2023/08/24 02:17:05;;;;;;;6.35;5.85;;;;;;;18.62;70.61;99051.22;5010439;28;20033;-82
2023/08/24 02:19:31;;;;;;;7.78;6.88;;;;;;;18.59;70.40;99049.09;5009838;28;20037;-83
2023/08/24 02:21:56;;;;;;;8.07;6.30;;;;;;;18.54;70.65;99041.06;5027527;28;20036;-82
2023/08/24 02:24:21;;;;;;;6.95;6.32;;;;;;;18.50;70.60;99039.28;5022460;28;20033;-82
2023/08/24 02:26:47;;;;;;;7.90;5.97;;;;;;;18.62;70.43;99040.41;5009593;28;20034;-83
2023/08/24 02:29:12;;;;;;;9.63;6.75;;;;;;;18.60;70.50;99033.69;5004121;28;20624;-82
2023/08/24 02:31:38;;;;;;;7.35;6.35;;;;;;;18.57;70.43;99028.84;5005342;28;20069;-83
2023/08/24 02:34:03;;;;;;;7.47;6.50;;;;;;;18.50;70.81;99042.75;5006042;28;20042;-82
2023/08/24 02:36:31;;;;;;;7.35;6.43;;;;;;;18.35;71.22;99031.34;5005025;28;20044;-82
2023/08/24 02:38:57;;;;;;;7.60;6.60;;;;;;;18.38;71.09;99026.16;5001584;28;20084;-82
2023/08/24 02:41:22;;;;;;;8.43;7.30;;;;;;;18.45;71.15;99034.75;5005767;28;20058;-83
2023/08/24 02:43:47;;;;;;;7.18;6.57;;;;;;;18.45;70.89;99025.81;5025051;28;20030;-83
2023/08/24 02:46:13;;;;;;;8.15;7.35;;;;;;;18.49;70.62;99034.94;5008124;28;20044;-82
2023/08/24 02:48:38;;;;;;;9.30;6.70;;;;;;;18.49;70.99;99034.94;5009861;28;21409;-82
2023/08/24 02:51:05;;;;;;;7.47;6.75;;;;;;;18.37;70.86;99021.84;5005834;28;20073;-82
2023/08/24 02:53:30;;;;;;;8.73;7.47;;;;;;;18.41;71.08;99039.06;5005606;28;20034;-83
2023/08/24 02:55:56;;;;;;;7.40;6.80;;;;;;;18.23;71.21;99022.91;5007619;28;20495;-82
2023/08/24 02:58:22;;;;;;;9.30;6.80;;;;;;;18.36;70.94;99027.56;5024065;28;20038;-83
2023/08/24 03:00:47;;;;;;;8.48;6.95;;;;;;;18.40;70.57;99026.69;5003422;28;20037;-82
2023/08/24 03:03:16;;;;;;;9.45;6.63;;;;;;;18.32;71.14;99027.34;5007284;28;20039;-83
2023/08/24 03:05:58;;;;;;;11.27;7.47;;;;;;;18.28;71.17;99028.22;5003580;28;20036;-82
2023/08/24 03:08:24;;;;;;;7.40;6.75;;;;;;;18.22;71.32;99032.91;5002787;28;20026;-82
2023/08/24 03:10:50;;;;;;;7.50;6.90;;;;;;;18.15;71.86;99029.75;5014573;28;20045;-82
2023/08/24 03:13:15;;;;;;;8.00;6.25;;;;;;;18.13;71.75;99020.34;5005872;28;20029;-82
2023/08/24 03:15:41;;;;;;;8.25;7.35;;;;;;;18.18;71.96;99034.59;5006287;28;20021;-83
2023/08/24 03:18:06;;;;;;;11.55;7.68;;;;;;;18.21;71.70;99030.50;5000898;28;20038;-82
2023/08/24 03:20:32;;;;;;;8.23;6.85;;;;;;;18.08;71.85;99021.22;5003113;28;20045;-82
2023/08/24 03:22:57;;;;;;;7.35;6.65;;;;;;;18.18;71.30;99021.06;4988710;28;20392;-82
2023/08/24 03:25:23;;;;;;;7.28;6.65;;;;;;;18.14;71.75;99021.94;5005072;28;20774;-82
2023/08/24 03:27:49;;;;;;;8.15;7.18;;;;;;;18.22;71.64;99038.31;5007743;28;20030;-82
2023/08/24 03:30:14;;;;;;;7.72;6.97;;;;;;;18.04;71.49;99020.22;5006806;28;20040;-82
2023/08/24 03:32:40;;;;;;;8.05;7.00;;;;;;;18.09;71.79;99028.22;5006088;28;20061;-82
2023/08/24 03:35:06;;;;;;;9.43;6.72;;;;;;;18.05;71.83;99040.72;5022590;28;20029;-82
2023/08/24 03:37:32;;;;;;;7.93;6.57;;;;;;;18.00;71.64;99027.28;5003770;28;20508;-82
2023/08/24 03:39:57;;;;;;;7.32;6.68;;;;;;;18.07;71.65;99035.00;5019020;28;20030;-82
2023/08/24 03:42:23;;;;;;;8.60;7.60;;;;;;;17.90;72.14;99022.84;5016868;28;20045;-82
2023/08/24 03:44:48;;;;;;;7.75;6.97;;;;;;;18.01;72.21;99037.00;5004861;28;20088;-82
2023/08/24 03:47:14;;;;;;;8.45;6.65;;;;;;;18.01;72.31;99038.88;5006938;28;20493;-82
2023/08/24 03:49:42;;;;;;;11.13;7.60;;;;;;;17.91;72.33;99034.41;4999652;28;20158;-82
2023/08/24 03:52:07;;;;;;;12.13;7.30;;;;;;;17.94;72.18;99025.75;5021041;28;20056;-82
2023/08/24 03:54:33;;;;;;;10.23;7.30;;;;;;;18.00;72.11;99023.78;5001212;28;20033;-83
2023/08/24 03:56:58;;;;;;;7.95;7.15;;;;;;;17.94;71.79;99029.25;5001357;28;20046;-82
2023/08/24 03:59:23;;;;;;;8.20;6.90;;;;;;;17.99;71.88;99028.38;5005198;28;20042;-82
2023/08/24 04:01:49;;;;;;;13.30;7.65;;;;;;;17.93;72.09;99038.44;5006880;28;20148;-83
2023/08/24 04:04:14;;;;;;;9.80;8.00;;;;;;;17.85;72.29;99022.09;5006278;28;20057;-83
2023/08/24 04:06:39;;;;;;;7.80;7.10;;;;;;;17.94;71.98;99042.75;5002900;28;20038;-82
2023/08/24 04:09:06;;;;;;;7.60;6.85;;;;;;;17.76;71.80;99019.25;5001559;28;20075;-82
2023/08/24 04:11:31;;;;;;;8.18;7.38;;;;;;;17.84;71.89;99040.19;5000469;28;20091;-83
2023/08/24 04:13:57;;;;;;;11.75;7.40;;;;;;;17.77;72.43;99044.34;4968193;28;20026;-82
2023/08/24 04:16:22;;;;;;;8.05;7.25;;;;;;;17.89;72.19;99045.53;5001880;28;20412;-82
2023/08/24 04:18:47;;;;;;;8.85;7.38;;;;;;;17.87;72.20;99053.13;5004158;28;20084;-83
2023/08/24 04:21:13;;;;;;;8.50;7.70;;;;;;;17.71;72.24;99038.19;5004817;28;20042;-83
2023/08/24 04:23:39;;;;;;;7.97;7.35;;;;;;;17.86;72.27;99053.41;4987904;28;20091;-82
2023/08/24 04:26:05;;;;;;;8.98;8.07;;;;;;;17.83;72.12;99056.69;4986148;28;20050;-83
2023/08/24 04:28:30;;;;;;;9.85;8.73;;;;;;;17.63;72.78;99027.25;4998126;28;20168;-82
2023/08/24 04:30:57;;;;;;;9.02;8.13;;;;;;;17.72;72.52;99056.03;4984859;28;20036;-83
2023/08/24 04:33:22;;;;;;;9.00;8.00;;;;;;;17.82;72.20;99055.88;5017226;28;20172;-82
2023/08/24 04:35:49;;;;;;;9.63;8.05;;;;;;;17.83;72.44;99046.69;5004844;28;20427;-83
2023/08/24 04:38:16;;;;;;;8.85;7.95;;;;;;;17.69;72.70;99045.78;5018827;28;20107;-84
2023/08/24 04:40:55;;;;;;;15.05;8.43;;;;;;;17.73;72.82;99051.44;5008245;28;20030;-84
2023/08/24 04:43:23;;;;;;;10.52;8.25;;;;;;;17.78;72.47;99037.84;5002815;28;20033;-83
2023/08/24 04:45:53;;;;;;;11.55;7.68;;;;;;;17.83;72.84;99043.19;5002706;28;20378;-83
2023/08/24 04:48:22;;;;;;;8.43;7.63;;;;;;;17.89;71.95;99029.31;5003824;28;20765;-84
2023/08/24 04:50:49;;;;;;;9.35;8.43;;;;;;;17.80;71.92;99025.66;5006582;28;20031;-86
2023/08/24 04:53:16;;;;;;;9.00;8.20;;;;;;;17.62;72.30;99020.25;5003800;28;20121;-84
2023/08/24 04:55:42;;;;;;;7.53;6.80;;;;;;;17.81;72.48;99031.88;4989339;28;20640;-86
2023/08/24 04:58:11;;;;;;;7.97;7.18;;;;;;;17.64;73.09;99029.69;5022750;28;20030;-84
2023/08/24 05:00:37;;;;;;;8.52;7.50;;;;;;;17.58;73.63;99040.81;5004274;28;20552;-84
2023/08/24 05:03:04;;;;;;;7.75;7.15;;;;;;;17.42;74.18;99031.25;5009029;28;20026;-87
2023/08/24 05:05:31;;;;;;;8.68;7.45;;;;;;;17.51;74.28;99041.19;5003309;28;20024;-84
2023/08/24 05:07:56;;;;;;;9.15;7.85;;;;;;;17.35;74.63;99039.72;5004552;28;20041;-84
2023/08/24 05:10:22;;;;;;;8.43;7.72;;;;;;;17.35;74.58;99026.22;5008060;28;20406;-84
2023/08/24 05:12:47;;;;;;;9.15;7.75;;;;;;;17.36;74.67;99025.13;4987291;28;20571;-84
2023/08/24 05:15:13;;;;;;;8.43;7.60;;;;;;;17.43;75.13;99022.88;5002446;28;20045;-85
2023/08/24 05:17:43;;;;;;;8.70;7.90;;;;;;;17.51;74.77;99024.97;5000850;28;20079;-85
2023/08/24 05:20:10;;;;;;;9.68;7.45;;;;;;;17.62;74.66;99039.97;5018243;28;20030;-84
2023/08/24 05:22:36;;;;;;;8.68;7.97;;;;;;;17.61;75.01;99041.03;5005772;28;20018;-84
2023/08/24 05:25:02;;;;;;;9.43;8.52;;;;;;;17.57;75.28;99031.91;5012014;28;20105;-85
2023/08/24 05:27:28;;;;;;;8.85;8.00;;;;;;;17.68;75.22;99048.78;5010852;28;20099;-84
2023/08/24 05:29:53;;;;;;;8.63;7.80;;;;;;;17.62;75.37;99034.56;5011291;28;20097;-85
2023/08/24 05:32:18;;;;;;;13.43;7.63;;;;;;;17.57;75.39;99041.91;5010738;28;20072;-84
2023/08/24 05:34:45;;;;;;;8.48;7.75;;;;;;;17.91;74.89;99061.44;5011020;28;20072;-85
2023/08/24 05:37:10;;;;;;;9.05;8.13;;;;;;;17.83;75.15;99052.09;5007356;28;20037;-85
2023/08/24 05:39:36;;;;;;;16.55;10.95;;;;;;;17.48;77.36;99047.09;5012468;28;20037;-84
2023/08/24 05:42:02;;;;;;;10.98;8.80;;;;;;;17.57;76.45;99047.31;4978493;28;20972;-84
2023/08/24 05:44:28;;;;;;;9.57;8.60;;;;;;;17.75;76.75;99062.75;5026051;28;20041;-85
2023/08/24 05:46:53;;;;;;;13.18;12.07;;;;;;;17.19;80.03;99059.84;5010771;28;20034;-85
2023/08/24 05:49:18;;;;;;;13.90;12.52;;;;;;;17.12;81.46;99079.06;5005908;28;20073;-85
2023/08/24 05:51:45;;;;;;;14.07;11.75;;;;;;;17.24;80.66;99081.38;5029992;28;20512;-84
2023/08/24 05:54:11;;;;;;;16.88;11.95;;;;;;;17.24;80.60;99070.59;5005773;28;20060;-85
2023/08/24 05:56:36;;;;;;;10.60;9.65;;;;;;;17.69;77.78;99070.09;4989703;28;20128;-84
2023/08/24 05:59:02;;;;;;;14.32;9.55;;;;;;;18.00;77.12;99080.53;4995190;28;20120;-84
2023/08/24 06:01:27;;;;;;;10.95;9.50;;;;;;;18.23;77.05;99091.25;5035088;28;20026;-83
2023/08/24 06:03:53;;;;;;;18.83;11.50;;;;;;;17.61;80.87;99078.84;5003684;28;20040;-83
2023/08/24 06:06:18;;;;;;;8.88;7.70;;;;;;;17.95;77.41;99068.66;5024107;28;20505;-83
2023/08/24 06:08:44;;;;;;;11.13;8.63;;;;;;;18.25;76.06;99080.16;4998351;28;20061;-82
2023/08/24 06:11:09;;;;;;;14.68;10.55;;;;;;;17.64;78.74;99016.19;5037956;28;20033;-83
2023/08/24 06:13:35;;;;;;;11.43;10.38;;;;;;;17.93;79.47;99064.66;5007129;28;20037;-82
2023/08/24 06:16:01;;;;;;;15.43;11.75;;;;;;;17.85;79.82;99068.81;5006311;28;20025;-82
2023/08/24 06:18:27;;;;;;;10.27;9.27;;;;;;;18.38;75.75;99061.31;5021071;28;20547;-83
2023/08/24 06:20:54;;;;;;;12.95;7.95;;;;;;;18.53;74.76;99039.47;5018529;28;20125;-83
2023/08/24 06:23:21;;;;;;;27.73;12.73;;;;;;;18.34;76.52;99038.66;5027986;28;20029;-82
2023/08/24 06:25:46;;;;;;;10.30;9.15;;;;;;;18.69;74.21;99037.31;5014746;28;20021;-83
2023/08/24 06:28:12;;;;;;;11.25;8.38;;;;;;;18.56;74.07;99008.34;5016947;28;20032;-83
2023/08/24 06:30:38;;;;;;;15.85;8.52;;;;;;;18.89;73.95;99045.09;5032752;28;20038;-82
2023/08/24 06:33:04;;;;;;;9.63;8.68;;;;;;;18.83;74.39;99037.34;5015046;28;20037;-83
2023/08/24 06:35:29;;;;;;;11.57;8.20;;;;;;;18.88;73.61;99035.34;5014361;28;20457;-83
2023/08/24 06:37:55;;;;;;;10.95;7.95;;;;;;;18.87;73.93;99049.97;5005194;28;20509;-82
2023/08/24 06:40:20;;;;;;;15.82;8.38;;;;;;;18.93;74.09;99059.63;5012198;28;20033;-83
2023/08/24 06:42:46;;;;;;;9.30;8.32;;;;;;;18.79;73.88;99033.63;5011052;28;20026;-83
2023/08/24 06:45:11;;;;;;;12.07;8.65;;;;;;;18.99;73.73;99049.50;5001171;28;20113;-82
2023/08/24 06:47:37;;;;;;;9.05;7.97;;;;;;;19.06;73.25;99049.91;5003615;28;20021;-82
2023/08/24 06:50:03;;;;;;;9.90;8.93;;;;;;;19.11;72.83;99039.78;5013862;28;20551;-82
2023/08/24 06:52:28;;;;;;;9.77;8.60;;;;;;;19.07;73.32;99035.28;5007925;28;20037;-82
2023/08/24 06:54:56;;;;;;;14.55;8.93;;;;;;;19.17;72.82;99044.03;5012654;28;20059;-82
2023/08/24 06:57:21;;;;;;;13.55;7.53;;;;;;;19.17;73.21;99038.63;5006235;28;20041;-82
2023/08/24 06:59:47;;;;;;;8.23;7.53;;;;;;;19.13;73.37;99042.22;5013309;28;20025;-83
2023/08/24 07:02:12;;;;;;;12.30;9.05;;;;;;;18.96;74.50;99033.88;5012201;28;20030;-82
2023/08/24 07:04:40;;;;;;;9.45;8.55;;;;;;;19.12;74.28;99043.31;5014201;28;20084;-83
2023/08/24 07:07:05;;;;;;;8.02;7.03;;;;;;;19.15;73.26;99034.59;5005676;28;20029;-83
2023/08/24 07:09:31;;;;;;;8.50;7.70;;;;;;;19.24;73.43;99040.91;5005484;28;20030;-82
2023/08/24 07:11:56;;;;;;;8.13;7.32;;;;;;;19.24;73.49;99039.00;5010296;28;20333;-83
2023/08/24 07:14:21;;;;;;;14.68;11.43;;;;;;;18.89;76.04;99036.97;5024482;28;20097;-82
2023/08/24 07:16:47;;;;;;;8.48;7.70;;;;;;;19.10;74.14;99032.78;5023222;28;20057;-82
2023/08/24 07:19:12;;;;;;;15.07;11.32;;;;;;;18.66;76.77;98998.16;5029954;28;20064;-83
2023/08/24 07:21:37;;;;;;;10.38;7.78;;;;;;;18.95;74.60;99006.00;5013230;28;20038;-83
2023/08/24 07:24:04;;;;;;;14.90;7.68;;;;;;;19.06;74.09;98998.50;5021466;28;20084;-82
2023/08/24 07:26:30;;;;;;;9.95;7.45;;;;;;;19.15;74.14;98992.09;4999112;28;20089;-83
2023/08/24 07:28:55;;;;;;;11.00;8.73;;;;;;;19.03;74.28;98990.97;4998002;28;20033;-82
2023/08/24 07:31:21;;;;;;;9.00;8.23;;;;;;;19.13;74.08;98999.69;5015282;28;20496;-83
2023/08/24 07:33:47;;;;;;;9.10;8.23;;;;;;;19.13;74.29;99002.41;5004536;28;20046;-83
2023/08/24 07:36:12;;;;;;;9.13;7.90;;;;;;;19.05;74.95;99003.09;5034353;28;20037;-83
2023/08/24 07:38:38;;;;;;;14.70;8.80;;;;;;;18.94;75.25;98988.16;5009246;28;20061;-83
2023/08/24 07:41:03;;;;;;;11.32;8.95;;;;;;;18.97;75.43;98990.28;4998990;28;20038;-83
2023/08/24 07:43:29;;;;;;;13.52;9.77;;;;;;;18.82;75.62;98965.41;5037026;28;20397;-82
2023/08/24 07:45:54;;;;;;;17.25;10.23;;;;;;;18.70;77.20;98949.66;5019628;28;20040;-83
2023/08/24 07:48:20;;;;;;;11.80;9.55;;;;;;;18.70;76.57;98930.75;5023199;28;20029;-83
2023/08/24 07:50:45;;;;;;;10.32;9.32;;;;;;;18.91;77.35;98955.50;5006297;28;20043;-83
2023/08/24 07:53:11;;;;;;;11.65;9.98;;;;;;;18.72;77.48;98928.53;5017557;28;20026;-83
2023/08/24 07:55:36;;;;;;;13.65;9.70;;;;;;;19.07;77.36;98967.63;5023420;28;20500;-83
2023/08/24 07:58:03;;;;;;;10.52;9.55;;;;;;;18.97;78.67;98971.34;5009275;28;20032;-83
2023/08/24 08:00:29;;;;;;;12.88;11.50;;;;;;;18.44;80.21;98929.56;5023462;28;20133;-83
2023/08/24 08:02:54;;;;;;;13.07;10.63;;;;;;;19.06;78.41;98983.09;5003481;28;20196;-83
2023/08/24 08:05:20;;;;;;;10.52;9.52;;;;;;;19.06;78.85;98966.03;5037502;28;20089;-83
2023/08/24 08:07:45;;;;;;;13.75;11.50;;;;;;;18.95;79.83;98962.72;4992270;28;20037;-83
2023/08/24 08:10:10;;;;;;;10.18;9.10;;;;;;;18.88;79.12;98929.06;5027340;28;20030;-84
2023/08/24 08:12:36;;;;;;;12.80;11.70;;;;;;;18.95;78.58;98930.28;5028567;28;20038;-83
2023/08/24 08:15:05;;;;;;;15.52;14.07;;;;;;;18.91;80.33;98940.09;5022882;28;20022;-84
2023/08/24 08:17:33;;;;;;;13.50;11.23;;;;;;;18.91;79.72;98923.88;5021746;28;20038;-84
2023/08/24 08:19:58;;;;;;;15.05;13.63;;;;;;;18.69;81.85;98894.81;4996726;28;20509;-84
2023/08/24 08:22:25;;;;;;;14.65;11.35;;;;;;;18.83;81.75;98929.94;5030529;28;20022;-83
2023/08/24 08:24:54;;;;;;;13.45;10.27;;;;;;;19.28;79.65;98915.53;5031469;28;20036;-83
2023/08/24 08:27:20;;;;;;;11.43;10.32;;;;;;;19.39;79.93;98933.19;5031771;28;20034;-83
2023/08/24 08:29:45;;;;;;;10.73;9.73;;;;;;;19.19;78.71;98886.75;5015145;28;20033;-84
2023/08/24 08:32:12;;;;;;;10.68;9.68;;;;;;;19.22;79.07;98884.22;5028962;28;20029;-84
2023/08/24 08:34:38;;;;;;;11.70;9.15;;;;;;;19.60;78.61;98924.59;5030677;28;20049;-84
2023/08/24 08:37:04;;;;;;;12.52;9.93;;;;;;;19.37;78.63;98892.06;5015029;28;20065;-83
2023/08/24 08:39:29;;;;;;;10.77;9.35;;;;;;;19.37;78.71;98880.44;5031818;28;20494;-84
2023/08/24 08:41:58;;;;;;;11.35;9.07;;;;;;;19.57;78.33;98917.88;5013158;28;20010;-83
2023/08/24 08:44:29;;;;;;;11.30;10.10;;;;;;;19.55;78.73;98917.38;5025209;28;20038;-83
2023/08/24 08:46:57;;;;;;;10.68;9.60;;;;;;;19.40;78.52;98899.56;5023880;28;20097;-83
2023/08/24 08:49:23;;;;;;;12.30;9.55;;;;;;;19.52;78.95;98919.91;5029166;28;20060;-84
2023/08/24 08:51:49;;;;;;;9.82;8.82;;;;;;;19.63;77.62;98910.44;5012634;28;20034;-83
2023/08/24 08:54:14;;;;;;;12.70;9.80;;;;;;;19.25;78.84;98862.00;5008426;28;20037;-83
2023/08/24 08:56:40;;;;;;;10.82;9.93;;;;;;;19.57;78.44;98895.44;5026535;28;20025;-83
2023/08/24 08:59:08;;;;;;;11.52;9.20;;;;;;;19.53;76.99;98861.97;5011496;28;20034;-83
2023/08/24 09:01:33;;;;;;;8.70;7.90;;;;;;;19.86;77.01;98903.94;5021425;28;20610;-83
2023/08/24 09:04:00;;;;;;;7.88;7.28;;;;;;;20.06;76.68;98906.16;5020624;28;20037;-83
2023/08/24 09:06:25;;;;;;;10.25;9.25;;;;;;;19.83;77.38;98877.47;5038654;28;20491;-82
2023/08/24 09:08:52;;;;;;;7.63;7.03;;;;;;;20.19;76.21;98895.25;5021336;28;20053;-83
2023/08/24 09:11:18;;;;;;;9.40;7.60;;;;;;;20.14;76.74;98905.41;5022756;28;20054;-83
2023/08/24 09:13:44;;;;;;;8.00;7.28;;;;;;;19.91;77.02;98874.81;5040698;28;20029;-83
2023/08/24 09:16:14;;;;;;;11.00;8.13;;;;;;;20.15;77.48;98898.91;4994988;28;20048;-83
2023/08/24 09:18:43;;;;;;;9.10;8.10;;;;;;;20.28;77.30;98906.19;5025760;28;20101;-83
2023/08/24 09:21:15;;;;;;;9.00;7.75;;;;;;;20.19;77.47;98897.97;5028231;28;20017;-83
2023/08/24 09:23:48;;;;;;;10.13;7.82;;;;;;;20.37;77.38;98895.38;5026190;28;20022;-83
2023/08/24 09:26:13;;;;;;;7.47;6.72;;;;;;;20.17;77.09;98856.81;5021217;28;20040;-82
2023/08/24 09:28:42;;;;;;;11.73;7.90;;;;;;;20.20;77.10;98860.81;5037805;28;20034;-82
2023/08/24 09:31:08;;;;;;;9.15;6.60;;;;;;;20.47;77.08;98890.50;5040373;28;20045;-84
2023/08/24 09:33:35;;;;;;;13.98;7.40;;;;;;;20.55;76.79;98899.78;5005480;28;20034;-82
2023/08/24 09:36:01;;;;;;;9.07;7.05;;;;;;;20.36;77.07;98856.63;5021013;28;20030;-83
2023/08/24 09:38:28;;;;;;;8.77;7.00;;;;;;;20.72;76.49;98902.56;5019716;28;20033;-82
2023/08/24 09:40:55;;;;;;;9.68;7.25;;;;;;;20.88;76.09;98896.41;5034748;28;20017;-83
2023/08/24 09:43:21;;;;;;;10.18;6.75;;;;;;;20.66;75.89;98847.66;5016438;28;20076;-83
2023/08/24 09:45:51;;;;;;;7.45;6.72;;;;;;;21.06;75.28;98891.03;5034122;28;20113;-83
2023/08/24 09:48:17;;;;;;;9.02;7.72;;;;;;;21.13;76.69;98896.81;5035812;28;20069;-83
2023/08/24 09:50:46;;;;;;;13.30;7.22;;;;;;;21.19;75.08;98882.78;5022091;28;20390;-83
2023/08/24 09:53:23;;;;;;;9.00;8.15;;;;;;;21.35;74.71;98883.13;5006394;28;20148;-83
2023/08/24 09:55:52;;;;;;;10.15;8.07;;;;;;;21.01;75.63;98870.28;4996242;28;21755;-83
2023/08/24 09:58:18;;;;;;;14.40;9.02;;;;;;;20.53;75.88;98836.94;5034159;28;20026;-82
2023/08/24 10:00:46;;;;;;;9.40;8.45;;;;;;;20.91;77.10;98884.94;5022468;28;20021;-83
2023/08/24 10:03:16;;;;;;;9.60;7.20;;;;;;;20.89;76.41;98875.50;5022266;28;20630;-82
2023/08/24 10:05:43;;;;;;;11.15;7.20;;;;;;;21.19;75.75;98863.78;5022804;28;20022;-83
2023/08/24 10:08:10;;;;;;;11.02;9.80;;;;;;;20.63;76.63;98863.75;5019556;28;20541;-83
2023/08/24 10:10:40;;;;;;;10.55;8.57;;;;;;;21.06;76.92;98848.44;5021580;28;20061;-83
2023/08/24 10:13:18;;;;;;;11.88;10.15;;;;;;;20.96;76.00;98856.84;5004028;28;20109;-82
2023/08/24 10:15:47;;;;;;;13.38;11.85;;;;;;;20.47;77.23;98817.28;5021416;28;20042;-82
2023/08/24 10:18:16;;;;;;;14.27;11.23;;;;;;;20.86;76.71;98832.69;5023982;28;20053;-82
2023/08/24 10:20:43;;;;;;;13.00;10.45;;;;;;;20.67;78.21;98795.00;5026282;28;20034;-84
2023/08/24 10:23:12;;;;;;;11.98;10.73;;;;;;;20.56;76.42;98826.25;5025680;28;20064;-83
2023/08/24 10:25:39;;;;;;;12.10;8.75;;;;;;;20.95;77.33;98805.63;5004674;28;20061;-83
2023/08/24 10:28:06;;;;;;;16.02;11.82;;;;;;;20.96;75.13;98808.00;5022587;28;20030;-83
2023/08/24 10:30:34;;;;;;;9.05;8.25;;;;;;;21.75;74.69;98815.88;5020918;28;20038;-83
2023/08/24 10:33:00;;;;;;;9.13;8.23;;;;;;;21.48;74.31;98798.00;5038822;28;20022;-83
2023/08/24 10:35:26;;;;;;;10.77;9.63;;;;;;;22.20;71.82;98823.31;4996979;28;20101;-84
2023/08/24 10:37:53;;;;;;;16.73;11.15;;;;;;;21.60;71.88;98811.75;5017831;28;20058;-83
2023/08/24 10:40:35;;;;;;;7.75;7.05;;;;;;;22.65;70.31;98795.63;5022168;28;20040;-83
2023/08/24 10:43:05;;;;;;;7.43;6.72;;;;;;;23.11;69.44;98809.09;5036715;28;20021;-83
2023/08/24 10:45:59;;;;;;;11.77;10.52;;;;;;;22.55;69.54;98798.69;5021067;28;20559;-83
2023/08/24 10:48:27;;;;;;;16.80;10.65;;;;;;;22.66;70.19;98813.53;5020863;28;20445;-83
2023/08/24 10:51:16;;;;;;;13.98;8.30;;;;;;;23.22;69.52;98806.81;5020046;28;20030;-83
2023/08/24 10:53:44;;;;;;;10.98;9.88;;;;;;;22.71;70.77;98806.00;5021039;28;20026;-83
2023/08/24 10:56:17;;;;;;;12.50;9.88;;;;;;;22.72;69.08;98813.03;5026401;28;20030;-83
2023/08/24 10:58:44;;;;;;;13.20;6.75;;;;;;;23.23;69.70;98757.44;5011915;28;20029;-83
2023/08/24 11:01:21;;;;;;;13.70;9.25;;;;;;;23.33;67.38;98814.25;5016903;28;20121;-83
2023/08/24 11:03:54;;;;;;;16.85;9.77;;;;;;;23.07;68.01;98811.69;5001704;28;20099;-83
2023/08/24 11:06:21;;;;;;;9.55;8.65;;;;;;;23.46;66.75;98799.56;5037249;28;20084;-83
2023/08/24 11:09:04;;;;;;;11.85;6.90;;;;;;;24.48;66.22;98794.19;5017804;28;20493;-83
2023/08/24 11:11:30;;;;;;;10.40;6.47;;;;;;;24.56;65.35;98782.34;5022572;28;20093;-83
2023/08/24 11:14:29;;;;;;;9.27;6.72;;;;;;;25.01;64.57;98791.19;5022783;28;20072;-83
2023/08/24 11:16:59;;;;;;;11.15;7.47;;;;;;;24.23;63.95;98762.53;5019681;28;20057;-83
2023/08/24 11:19:24;;;;;;;8.93;6.35;;;;;;;24.80;65.06;98787.03;5014997;28;20034;-83
2023/08/24 11:21:51;;;;;;;8.13;7.07;;;;;;;25.12;63.88;98770.47;5023306;28;20030;-83
2023/08/24 11:24:17;;;;;;;6.60;5.80;;;;;;;25.62;62.87;98804.72;5023269;28;20022;-84
2023/08/24 11:26:47;;;;;;;10.02;6.18;;;;;;;25.55;62.68;98771.72;5016921;28;20022;-83
2023/08/24 11:29:13;;;;;;;6.63;5.50;;;;;;;25.66;62.52;98773.63;5020279;28;20093;-84